Time;durP1;ratioP1;P1;durP2;ratioP2;P2;SDS_P1;SDS_P2;PMS_P1;PMS_P2;Temp;Humidity;BMP_temperature;BMP_pressure;BME280_temperature;BME280_humidity;BME280_pressure;Samples;Min_cycle;Max_cycle;Signal;HPM_P1;HPM_P2
2024/01/10 00:00:16;;;;;;;1.77;1.67;;;;;;;;;;5112484;28;20449;-77
2024/01/10 00:02:44;;;;;;;2.07;1.87;;;;;;;;;;5114110;28;20436;-77
2024/01/10 00:05:11;;;;;;;1.40;1.30;;;;;;;;;;5113967;28;20433;-77
2024/01/10 00:07:37;;;;;;;1.33;1.33;;;;;;;;;;5112782;28;20468;-77
2024/01/10 00:10:05;;;;;;;1.77;1.67;;;;;;;;;;5114536;28;20447;-77
2024/01/10 00:12:36;;;;;;;1.60;1.50;;;;;;;;;;5112978;28;20448;-77
2024/01/10 00:15:05;;;;;;;2.70;1.87;;;;;;;;;;5113520;28;20454;-77
2024/01/10 00:17:35;;;;;;;2.80;1.87;;;;;;;;;;5113210;28;20481;-77
2024/01/10 00:20:03;;;;;;;2.50;1.70;;;;;;;;;;5113815;28;20520;-77
2024/01/10 00:22:30;;;;;;;1.73;1.60;;;;;;;;;;5114068;28;20967;-77
2024/01/10 00:24:57;;;;;;;3.90;1.70;;;;;;;;;;5112576;28;20456;-77
2024/01/10 00:27:24;;;;;;;1.77;1.30;;;;;;;;;;5112885;28;20468;-77
2024/01/10 00:29:51;;;;;;;3.47;2.37;;;;;;;;;;5113742;28;20785;-77
2024/01/10 00:32:18;;;;;;;2.07;1.93;;;;;;;;;;5114042;28;20469;-77
2024/01/10 00:34:45;;;;;;;1.83;1.67;;;;;;;;;;5112479;28;20433;-77
2024/01/10 00:37:13;;;;;;;1.73;1.63;;;;;;;;;;5114127;28;20477;-77
2024/01/10 00:39:40;;;;;;;3.03;2.10;;;;;;;;;;5114069;28;20912;-77
2024/01/10 00:42:06;;;;;;;2.07;1.50;;;;;;;;;;5112269;28;20516;-77
2024/01/10 00:44:34;;;;;;;2.13;1.67;;;;;;;;;;5112847;28;20449;-77
2024/01/10 00:47:01;;;;;;;1.97;1.87;;;;;;;;;;5112102;28;20442;-78
2024/01/10 00:49:28;;;;;;;2.57;1.87;;;;;;;;;;5112783;28;20979;-77
2024/01/10 00:51:55;;;;;;;2.00;1.80;;;;;;;;;;5113421;28;20502;-77
2024/01/10 00:54:23;;;;;;;1.97;1.63;;;;;;;;;;5112488;28;20437;-77
2024/01/10 00:56:50;;;;;;;2.13;1.93;;;;;;;;;;5112407;28;20507;-77
2024/01/10 00:59:17;;;;;;;1.60;1.50;;;;;;;;;;5112462;28;21009;-77
2024/01/10 01:01:44;;;;;;;7.07;3.80;;;;;;;;;;5113074;28;20825;-77
2024/01/10 01:04:11;;;;;;;2.13;1.67;;;;;;;;;;5112486;28;20952;-77
2024/01/10 01:06:37;;;;;;;3.67;3.37;;;;;;;;;;5106293;28;20812;-78
2024/01/10 01:09:04;;;;;;;2.00;1.57;;;;;;;;;;5112584;28;20448;-77
2024/01/10 01:11:34;;;;;;;1.43;1.33;;;;;;;;;;5112863;28;20444;-77
2024/01/10 01:14:00;;;;;;;4.60;2.90;;;;;;;;;;5112044;28;20516;-77
2024/01/10 01:16:27;;;;;;;5.00;3.47;;;;;;;;;;5113092;28;20860;-77
2024/01/10 01:18:54;;;;;;;2.63;2.00;;;;;;;;;;5112089;28;20229;-77
2024/01/10 01:21:21;;;;;;;3.37;2.60;;;;;;;;;;5112163;28;21080;-77
2024/01/10 01:23:47;;;;;;;9.23;4.47;;;;;;;;;;5112233;28;20446;-77
2024/01/10 01:26:14;;;;;;;2.23;1.87;;;;;;;;;;5112114;28;20456;-78
2024/01/10 01:28:42;;;;;;;2.90;1.80;;;;;;;;;;5112011;28;20445;-77
2024/01/10 01:31:11;;;;;;;1.90;1.80;;;;;;;;;;5112131;28;20448;-77
2024/01/10 01:33:39;;;;;;;1.33;1.23;;;;;;;;;;5112147;28;20966;-77
2024/01/10 01:36:06;;;;;;;1.53;1.30;;;;;;;;;;5113190;28;20510;-77
2024/01/10 01:38:35;;;;;;;2.77;1.90;;;;;;;;;;5112249;28;20554;-77
2024/01/10 01:41:02;;;;;;;2.77;2.57;;;;;;;;;;5110958;28;20537;-77
2024/01/10 01:43:29;;;;;;;1.57;1.47;;;;;;;;;;5111869;28;20445;-77
2024/01/10 01:45:58;;;;;;;1.20;1.20;;;;;;;;;;5111504;28;20450;-77
2024/01/10 01:48:25;;;;;;;1.93;1.70;;;;;;;;;;5112887;28;20694;-77
2024/01/10 01:50:53;;;;;;;3.10;1.57;;;;;;;;;;5112270;28;20485;-77
2024/01/10 01:53:20;;;;;;;2.80;2.23;;;;;;;;;;5111293;28;20442;-77
2024/01/10 01:55:47;;;;;;;1.67;1.57;;;;;;;;;;5111190;28;20449;-77
2024/01/10 01:58:14;;;;;;;1.50;1.40;;;;;;;;;;5110986;28;20990;-78
2024/01/10 02:00:41;;;;;;;3.40;3.10;;;;;;;;;;5111878;28;20455;-77
2024/01/10 02:03:10;;;;;;;1.30;1.23;;;;;;;;;;5111852;28;20440;-77
2024/01/10 02:05:38;;;;;;;6.00;4.23;;;;;;;;;;5091672;28;20442;-77
2024/01/10 02:08:05;;;;;;;2.37;1.90;;;;;;;;;;5102689;28;20444;-77
2024/01/10 02:10:33;;;;;;;2.10;1.90;;;;;;;;;;5111949;28;20445;-77
2024/01/10 02:12:59;;;;;;;2.50;1.80;;;;;;;;;;5110982;28;20441;-77
2024/01/10 02:15:26;;;;;;;6.40;5.10;;;;;;;;;;5112500;28;20441;-77
2024/01/10 02:17:53;;;;;;;1.40;1.30;;;;;;;;;;5112178;28;20473;-76
2024/01/10 02:20:22;;;;;;;3.50;2.67;;;;;;;;;;5110597;28;20440;-77
2024/01/10 02:22:50;;;;;;;0.97;0.97;;;;;;;;;;5111086;28;20441;-77
2024/01/10 02:25:18;;;;;;;2.47;1.87;;;;;;;;;;5115836;28;20440;-77
2024/01/10 02:27:45;;;;;;;1.47;1.27;;;;;;;;;;5116146;28;20446;-78
2024/01/10 02:30:12;;;;;;;1.77;1.67;;;;;;;;;;5105811;28;20507;-78
2024/01/10 02:32:39;;;;;;;1.80;1.70;;;;;;;;;;5099682;28;20494;-77
2024/01/10 02:35:06;;;;;;;1.67;1.50;;;;;;;;;;5095564;28;20439;-77
2024/01/10 02:37:36;;;;;;;9.97;4.70;;;;;;;;;;5110756;28;20437;-77
2024/01/10 02:40:04;;;;;;;3.60;2.47;;;;;;;;;;5095538;28;20506;-77
2024/01/10 02:42:33;;;;;;;10.03;5.90;;;;;;;;;;5094261;28;20446;-78
2024/01/10 02:45:00;;;;;;;35.00;19.33;;;;;;;;;;5094784;28;20441;-78
2024/01/10 02:47:28;;;;;;;14.13;8.13;;;;;;;;;;5094358;28;20566;-78
2024/01/10 02:49:56;;;;;;;22.27;12.30;;;;;;;;;;5095159;28;20445;-78
2024/01/10 02:52:22;;;;;;;8.03;5.40;;;;;;;;;;5095022;28;20438;-78
2024/01/10 02:54:49;;;;;;;28.33;16.37;;;;;;;;;;5094909;28;20442;-77
2024/01/10 02:57:16;;;;;;;11.70;7.20;;;;;;;;;;5104365;28;20449;-77
2024/01/10 02:59:44;;;;;;;2.83;2.60;;;;;;;;;;5106584;28;20605;-77
2024/01/10 03:02:11;;;;;;;6.87;4.70;;;;;;;;;;5098719;28;20503;-77
2024/01/10 03:04:38;;;;;;;6.93;5.70;;;;;;;;;;5109069;28;20452;-77
2024/01/10 03:07:04;;;;;;;2.87;2.53;;;;;;;;;;5115666;28;20449;-77
2024/01/10 03:09:31;;;;;;;4.90;3.10;;;;;;;;;;5114239;28;20445;-77
2024/01/10 03:11:58;;;;;;;2.07;1.73;;;;;;;;;;5115407;28;20464;-77
2024/01/10 03:14:25;;;;;;;8.97;5.53;;;;;;;;;;5114701;28;20451;-77
2024/01/10 03:16:53;;;;;;;2.10;1.70;;;;;;;;;;5115490;28;20433;-77
2024/01/10 03:19:20;;;;;;;9.70;3.63;;;;;;;;;;5115734;28;20481;-77
2024/01/10 03:21:45;;;;;;;1.97;1.63;;;;;;;;;;5106610;28;20447;-77
2024/01/10 03:24:12;;;;;;;6.67;4.80;;;;;;;;;;5103707;28;20438;-77
2024/01/10 03:26:39;;;;;;;4.73;3.60;;;;;;;;;;5114446;28;20188;-78
2024/01/10 03:29:06;;;;;;;5.30;3.43;;;;;;;;;;5114555;28;20440;-77
2024/01/10 03:31:35;;;;;;;3.07;2.43;;;;;;;;;;5114414;28;20452;-81
2024/01/10 03:34:04;;;;;;;1.70;1.53;;;;;;;;;;5098470;28;20474;-80
2024/01/10 03:36:31;;;;;;;4.03;2.10;;;;;;;;;;5112524;28;20947;-80
2024/01/10 03:38:58;;;;;;;5.70;3.07;;;;;;;;;;5114388;28;20480;-80
2024/01/10 03:41:25;;;;;;;1.77;1.20;;;;;;;;;;5115308;28;20821;-80
2024/01/10 03:43:51;;;;;;;1.20;1.20;;;;;;;;;;5115171;28;20437;-80
2024/01/10 03:46:18;;;;;;;2.77;2.17;;;;;;;;;;5113994;28;20448;-80
2024/01/10 03:48:48;;;;;;;2.87;2.60;;;;;;;;;;5115018;28;20452;-80
2024/01/10 03:51:17;;;;;;;7.23;4.57;;;;;;;;;;5114573;28;20513;-80
2024/01/10 03:53:44;;;;;;;3.70;3.50;;;;;;;;;;5114752;28;20436;-79
2024/01/10 03:56:11;;;;;;;4.90;3.83;;;;;;;;;;5114878;28;20437;-79
2024/01/10 03:58:38;;;;;;;1.97;1.87;;;;;;;;;;5109157;28;21026;-80
2024/01/10 04:01:08;;;;;;;1.50;1.40;;;;;;;;;;5101566;28;20445;-80
2024/01/10 04:03:35;;;;;;;9.60;6.10;;;;;;;;;;5113891;28;20444;-80
2024/01/10 04:06:02;;;;;;;3.37;2.30;;;;;;;;;;5114289;28;20787;-80
2024/01/10 04:08:30;;;;;;;2.67;1.87;;;;;;;;;;5114051;28;20449;-79
2024/01/10 04:10:57;;;;;;;2.73;1.40;;;;;;;;;;5115003;28;20445;-79
2024/01/10 04:13:24;;;;;;;4.23;1.30;;;;;;;;;;5113312;28;20815;-80
2024/01/10 04:15:51;;;;;;;6.23;2.80;;;;;;;;;;5114569;28;20458;-80
2024/01/10 04:18:17;;;;;;;3.73;2.97;;;;;;;;;;5113136;28;20979;-79
2024/01/10 04:20:45;;;;;;;1.70;1.50;;;;;;;;;;5114685;28;20441;-79
2024/01/10 04:23:11;;;;;;;1.00;1.00;;;;;;;;;;5114912;28;20568;-79
2024/01/10 04:25:40;;;;;;;2.93;2.17;;;;;;;;;;5114871;28;20438;-79
2024/01/10 04:28:07;;;;;;;4.97;3.63;;;;;;;;;;5112859;28;20826;-80
2024/01/10 04:30:36;;;;;;;16.67;10.20;;;;;;;;;;5113823;28;20900;-80
2024/01/10 04:33:03;;;;;;;4.63;2.80;;;;;;;;;;5113760;28;20480;-79
2024/01/10 04:35:30;;;;;;;7.30;3.80;;;;;;;;;;5113466;28;20445;-80
2024/01/10 04:37:57;;;;;;;4.10;2.70;;;;;;;;;;5113842;28;20456;-79
2024/01/10 04:40:24;;;;;;;1.57;1.47;;;;;;;;;;5113920;28;20488;-80
2024/01/10 04:42:52;;;;;;;5.03;3.57;;;;;;;;;;5114264;28;20444;-81
2024/01/10 04:45:18;;;;;;;5.07;4.57;;;;;;;;;;5112570;28;20437;-81
2024/01/10 04:47:45;;;;;;;2.60;2.40;;;;;;;;;;5112420;28;20461;-81
2024/01/10 04:50:12;;;;;;;2.27;2.03;;;;;;;;;;5113198;28;20442;-80
2024/01/10 04:52:39;;;;;;;1.67;1.57;;;;;;;;;;5114322;28;20452;-80
2024/01/10 04:55:07;;;;;;;2.50;1.83;;;;;;;;;;5112547;28;20429;-81
2024/01/10 04:57:35;;;;;;;23.93;10.03;;;;;;;;;;5113822;28;20442;-80
2024/01/10 05:00:04;;;;;;;9.30;7.17;;;;;;;;;;5113641;28;20481;-80
2024/01/10 05:02:31;;;;;;;9.87;5.97;;;;;;;;;;5112218;28;20449;-80
2024/01/10 05:04:57;;;;;;;5.87;3.07;;;;;;;;;;5112908;28;20463;-82
2024/01/10 05:07:24;;;;;;;3.80;2.17;;;;;;;;;;5102236;28;20443;-82
2024/01/10 05:09:51;;;;;;;14.57;9.77;;;;;;;;;;5093373;28;21001;-85
2024/01/10 05:12:18;;;;;;;14.53;6.33;;;;;;;;;;5107268;28;20445;-84
2024/01/10 05:14:45;;;;;;;7.10;4.80;;;;;;;;;;5113306;28;20449;-84
2024/01/10 05:17:13;;;;;;;5.67;4.00;;;;;;;;;;5113980;28;20441;-84
2024/01/10 05:19:40;;;;;;;1.80;1.70;;;;;;;;;;5113374;28;20473;-84
2024/01/10 05:22:07;;;;;;;1.80;1.70;;;;;;;;;;5113557;28;20986;-84
2024/01/10 05:24:37;;;;;;;1.07;1.03;;;;;;;;;;5114303;28;20453;-84
2024/01/10 05:27:04;;;;;;;3.53;3.23;;;;;;;;;;5111617;28;20847;-84
2024/01/10 05:29:30;;;;;;;2.60;2.40;;;;;;;;;;5113254;28;20441;-84
2024/01/10 05:31:57;;;;;;;5.07;3.57;;;;;;;;;;5113335;28;20437;-84
2024/01/10 05:34:25;;;;;;;2.80;2.53;;;;;;;;;;5106115;28;20441;-84
2024/01/10 05:36:53;;;;;;;3.90;3.57;;;;;;;;;;5111644;28;20437;-84
2024/01/10 05:39:21;;;;;;;49.37;27.70;;;;;;;;;;5111962;28;20469;-86
2024/01/10 05:41:48;;;;;;;31.37;19.60;;;;;;;;;;5112900;28;20480;-85
2024/01/10 05:44:15;;;;;;;8.97;5.97;;;;;;;;;;5110923;28;20449;-85
2024/01/10 05:46:42;;;;;;;5.83;4.47;;;;;;;;;;5111812;28;20982;-85
2024/01/10 05:49:10;;;;;;;18.37;7.03;;;;;;;;;;5111758;28;20540;-85
2024/01/10 05:51:38;;;;;;;5.70;3.50;;;;;;;;;;5112174;28;20542;-85
2024/01/10 05:54:07;;;;;;;4.30;2.97;;;;;;;;;;5111597;28;20525;-85
2024/01/10 05:56:34;;;;;;;14.53;9.03;;;;;;;;;;5112273;28;20459;-85
2024/01/10 05:59:01;;;;;;;8.47;5.07;;;;;;;;;;5112043;28;20472;-85
2024/01/10 06:01:28;;;;;;;3.50;2.83;;;;;;;;;;5111846;28;20959;-86
2024/01/10 06:03:56;;;;;;;2.77;2.57;;;;;;;;;;5112394;28;20524;-86
2024/01/10 06:06:23;;;;;;;3.37;2.50;;;;;;;;;;5112066;28;20440;-85
2024/01/10 06:08:51;;;;;;;2.73;2.43;;;;;;;;;;5112148;28;20441;-85
2024/01/10 06:11:19;;;;;;;8.60;5.70;;;;;;;;;;5112621;28;21034;-86
2024/01/10 06:13:46;;;;;;;11.83;7.13;;;;;;;;;;5111757;28;20447;-85
2024/01/10 06:16:13;;;;;;;12.70;7.57;;;;;;;;;;5111792;28;20446;-85
2024/01/10 06:18:40;;;;;;;11.50;7.23;;;;;;;;;;5112164;28;20449;-85
2024/01/10 06:21:07;;;;;;;5.10;4.67;;;;;;;;;;5111293;28;20449;-83
2024/01/10 06:23:36;;;;;;;7.20;4.97;;;;;;;;;;5111679;28;20940;-85
2024/01/10 06:26:04;;;;;;;4.33;3.40;;;;;;;;;;5112114;28;20437;-85
2024/01/10 06:28:35;;;;;;;3.70;2.87;;;;;;;;;;5111278;28;20437;-83
2024/01/10 06:31:02;;;;;;;2.77;2.07;;;;;;;;;;5111340;28;20870;-83
2024/01/10 06:33:29;;;;;;;3.10;2.37;;;;;;;;;;5104391;28;20535;-84
2024/01/10 06:35:56;;;;;;;5.50;4.50;;;;;;;;;;5106238;28;20454;-85
2024/01/10 06:38:23;;;;;;;8.23;5.77;;;;;;;;;;5111481;28;20825;-86
2024/01/10 06:40:50;;;;;;;4.87;4.47;;;;;;;;;;5111213;28;20483;-83
2024/01/10 06:43:18;;;;;;;5.40;3.70;;;;;;;;;;5111577;28;20506;-84
2024/01/10 06:45:45;;;;;;;3.30;2.70;;;;;;;;;;5111896;28;20521;-83
2024/01/10 06:48:12;;;;;;;7.70;2.20;;;;;;;;;;5111420;28;20437;-84
2024/01/10 06:50:39;;;;;;;3.00;2.50;;;;;;;;;;5111469;28;20801;-84
2024/01/10 06:53:06;;;;;;;8.10;5.07;;;;;;;;;;5111873;28;20507;-84
2024/01/10 06:55:33;;;;;;;5.53;5.00;;;;;;;;;;5111405;28;20453;-84
2024/01/10 06:57:59;;;;;;;10.17;8.47;;;;;;;;;;5111478;28;20445;-84
2024/01/10 07:00:28;;;;;;;10.93;6.90;;;;;;;;;;5111495;28;20497;-85
2024/01/10 07:02:54;;;;;;;3.30;2.80;;;;;;;;;;5111758;28;20437;-85
2024/01/10 07:05:22;;;;;;;3.57;2.87;;;;;;;;;;5111827;28;20869;-84
2024/01/10 07:07:49;;;;;;;3.47;2.80;;;;;;;;;;5111434;28;20449;-84
2024/01/10 07:10:16;;;;;;;3.67;2.77;;;;;;;;;;5113640;28;20488;-84
2024/01/10 07:12:43;;;;;;;7.60;2.97;;;;;;;;;;5114991;28;20441;-84
2024/01/10 07:15:13;;;;;;;5.37;4.00;;;;;;;;;;5114992;28;20437;-84
2024/01/10 07:17:41;;;;;;;4.27;3.43;;;;;;;;;;5115264;28;20445;-84
2024/01/10 07:20:12;;;;;;;6.43;4.70;;;;;;;;;;5114907;28;20488;-86
2024/01/10 07:22:41;;;;;;;8.27;3.43;;;;;;;;;;5115215;28;20480;-85
2024/01/10 07:25:08;;;;;;;3.70;3.30;;;;;;;;;;5115171;28;20532;-85
2024/01/10 07:27:37;;;;;;;4.23;3.10;;;;;;;;;;5114769;28;20494;-85
2024/01/10 07:30:11;;;;;;;4.67;3.17;;;;;;;;;;5114392;28;21016;-85
2024/01/10 07:32:38;;;;;;;4.07;3.60;;;;;;;;;;5101306;28;20504;-84
2024/01/10 07:35:09;;;;;;;3.40;2.53;;;;;;;;;;5114669;28;20518;-84
2024/01/10 07:37:36;;;;;;;2.93;2.60;;;;;;;;;;5114543;28;20445;-84
2024/01/10 07:40:05;;;;;;;9.07;3.60;;;;;;;;;;5114798;28;20483;-84
2024/01/10 07:42:35;;;;;;;5.20;3.30;;;;;;;;;;5113887;28;20445;-84
2024/01/10 07:45:03;;;;;;;4.40;3.37;;;;;;;;;;5114813;28;20449;-84
2024/01/10 07:47:30;;;;;;;2.97;2.63;;;;;;;;;;5114913;28;20441;-85
2024/01/10 07:49:57;;;;;;;4.00;2.70;;;;;;;;;;5114687;28;20566;-85
2024/01/10 07:52:25;;;;;;;3.47;2.93;;;;;;;;;;5114458;28;20949;-84
2024/01/10 07:54:52;;;;;;;3.73;2.17;;;;;;;;;;5114835;28;20437;-85
2024/01/10 07:57:19;;;;;;;2.77;2.47;;;;;;;;;;5113822;28;20444;-85
2024/01/10 07:59:47;;;;;;;2.30;2.10;;;;;;;;;;5114389;28;20480;-84
2024/01/10 08:02:14;;;;;;;2.13;1.90;;;;;;;;;;5113697;28;20441;-85
2024/01/10 08:04:41;;;;;;;5.00;3.03;;;;;;;;;;5114181;28;20964;-85
2024/01/10 08:07:08;;;;;;;2.73;1.93;;;;;;;;;;5114191;28;20959;-84
2024/01/10 08:09:38;;;;;;;3.77;2.50;;;;;;;;;;5113850;28;20669;-85
2024/01/10 08:12:06;;;;;;;10.03;7.07;;;;;;;;;;5113944;28;20442;-85
2024/01/10 08:14:33;;;;;;;5.60;3.90;;;;;;;;;;5114139;28;20248;-85
2024/01/10 08:17:00;;;;;;;4.53;3.17;;;;;;;;;;5113345;28;20682;-85
2024/01/10 08:19:27;;;;;;;4.80;3.33;;;;;;;;;;5114019;28;20192;-85
2024/01/10 08:21:54;;;;;;;2.13;1.70;;;;;;;;;;5112919;28;20603;-85
2024/01/10 08:24:21;;;;;;;7.77;3.30;;;;;;;;;;5113735;28;20206;-85
2024/01/10 08:26:51;;;;;;;10.87;3.93;;;;;;;;;;5114088;28;20200;-85
2024/01/10 08:29:18;;;;;;;5.53;2.27;;;;;;;;;;5113295;28;20219;-85
2024/01/10 08:31:45;;;;;;;3.00;2.13;;;;;;;;;;5113560;28;20188;-85
2024/01/10 08:34:12;;;;;;;2.60;2.40;;;;;;;;;;5099361;28;20273;-85
2024/01/10 08:36:39;;;;;;;2.90;2.33;;;;;;;;;;5113898;28;20192;-85
2024/01/10 08:39:06;;;;;;;2.93;2.57;;;;;;;;;;5113696;28;20207;-85
2024/01/10 08:41:33;;;;;;;7.03;3.80;;;;;;;;;;5113448;28;21001;-85
2024/01/10 08:44:02;;;;;;;3.57;2.53;;;;;;;;;;5113386;28;20263;-84
2024/01/10 08:46:29;;;;;;;2.47;2.17;;;;;;;;;;5113487;28;20203;-84
2024/01/10 08:48:56;;;;;;;2.70;2.47;;;;;;;;;;5112656;28;20199;-83
2024/01/10 08:51:23;;;;;;;2.97;2.17;;;;;;;;;;5112943;28;20196;-83
2024/01/10 08:53:50;;;;;;;1.87;1.73;;;;;;;;;;5113069;28;20199;-82
2024/01/10 08:56:17;;;;;;;3.40;2.30;;;;;;;;;;5112998;28;20199;-82
2024/01/10 08:58:43;;;;;;;2.03;1.83;;;;;;;;;;5112238;28;20698;-81
2024/01/10 09:01:12;;;;;;;5.43;2.07;;;;;;;;;;5113069;28;20226;-80
2024/01/10 09:03:39;;;;;;;2.40;2.10;;;;;;;;;;5112973;28;20567;-80
2024/01/10 09:06:07;;;;;;;1.80;1.70;;;;;;;;;;5112921;28;20658;-79
2024/01/10 09:08:37;;;;;;;2.13;1.97;;;;;;;;;;5112360;28;20698;-78
2024/01/10 09:11:04;;;;;;;2.70;1.83;;;;;;;;;;5112258;28;20195;-78
2024/01/10 09:13:31;;;;;;;5.43;2.47;;;;;;;;;;5111049;28;20199;-78
2024/01/10 09:15:58;;;;;;;4.40;2.17;;;;;;;;;;5112072;28;20252;-78
2024/01/10 09:18:26;;;;;;;3.67;2.00;;;;;;;;;;5112258;28;20260;-79
2024/01/10 09:20:53;;;;;;;1.90;1.80;;;;;;;;;;5112432;28;20219;-79
2024/01/10 09:23:19;;;;;;;9.50;5.97;;;;;;;;;;5112386;28;20195;-78
2024/01/10 09:25:46;;;;;;;3.23;2.27;;;;;;;;;;5112665;28;20268;-78
2024/01/10 09:28:13;;;;;;;3.53;3.20;;;;;;;;;;5112135;28;20199;-78
2024/01/10 09:30:40;;;;;;;2.27;2.07;;;;;;;;;;5112063;28;20262;-78
2024/01/10 09:33:07;;;;;;;2.90;2.47;;;;;;;;;;5111387;28;20301;-78
2024/01/10 09:35:35;;;;;;;4.73;2.43;;;;;;;;;;5111666;28;20203;-79
2024/01/10 09:38:02;;;;;;;14.27;5.73;;;;;;;;;;5082429;28;20252;-78
2024/01/10 09:40:29;;;;;;;3.83;2.80;;;;;;;;;;5112137;28;20244;-78
2024/01/10 09:42:57;;;;;;;3.57;2.53;;;;;;;;;;5111406;28;20203;-78
2024/01/10 09:45:24;;;;;;;2.43;1.90;;;;;;;;;;5112356;28;20218;-78
2024/01/10 09:47:55;;;;;;;2.90;2.10;;;;;;;;;;5111500;28;20227;-78
2024/01/10 09:50:22;;;;;;;12.00;5.07;;;;;;;;;;5111853;28;20260;-78
2024/01/10 09:52:52;;;;;;;4.17;3.03;;;;;;;;;;5112292;28;20195;-78
2024/01/10 09:55:22;;;;;;;2.97;2.43;;;;;;;;;;5109915;28;20210;-78
2024/01/10 09:57:49;;;;;;;9.10;3.30;;;;;;;;;;5100492;28;20203;-78
2024/01/10 10:00:16;;;;;;;2.13;1.90;;;;;;;;;;5111762;28;20564;-79
2024/01/10 10:02:43;;;;;;;3.07;2.07;;;;;;;;;;5111861;28;20218;-79
2024/01/10 10:05:15;;;;;;;2.67;2.47;;;;;;;;;;5111390;28;20195;-79
2024/01/10 10:07:46;;;;;;;2.83;2.33;;;;;;;;;;5111907;28;20210;-79
2024/01/10 10:10:15;;;;;;;2.37;2.10;;;;;;;;;;5111228;28;20191;-79
2024/01/10 10:12:47;;;;;;;3.53;2.53;;;;;;;;;;5109634;28;20195;-79
2024/01/10 10:15:15;;;;;;;4.47;2.33;;;;;;;;;;5111394;28;20192;-80
2024/01/10 10:17:46;;;;;;;3.50;2.30;;;;;;;;;;5111163;28;20603;-80
2024/01/10 10:20:15;;;;;;;4.37;2.70;;;;;;;;;;5111393;28;20215;-80
2024/01/10 10:22:45;;;;;;;4.40;2.50;;;;;;;;;;5111813;28;20196;-80
2024/01/10 10:25:13;;;;;;;3.27;2.63;;;;;;;;;;5111199;28;20199;-80
2024/01/10 10:27:40;;;;;;;3.63;2.53;;;;;;;;;;5111243;28;20670;-81
2024/01/10 10:30:09;;;;;;;3.33;2.53;;;;;;;;;;5098700;28;20214;-81
2024/01/10 10:32:36;;;;;;;4.33;2.47;;;;;;;;;;5111218;28;20276;-81
2024/01/10 10:35:05;;;;;;;3.33;2.67;;;;;;;;;;5111184;28;20200;-81
2024/01/10 10:37:31;;;;;;;3.00;2.57;;;;;;;;;;5111266;28;20196;-82
2024/01/10 10:39:58;;;;;;;2.90;2.60;;;;;;;;;;5111377;28;20199;-82
2024/01/10 10:42:27;;;;;;;3.03;2.63;;;;;;;;;;5110956;28;20204;-82
2024/01/10 10:44:58;;;;;;;2.53;2.30;;;;;;;;;;5113412;28;20195;-82
2024/01/10 10:47:27;;;;;;;2.90;2.23;;;;;;;;;;5115208;28;20673;-83
2024/01/10 10:49:55;;;;;;;3.23;2.50;;;;;;;;;;5107590;28;20253;-83
2024/01/10 10:52:24;;;;;;;3.50;2.93;;;;;;;;;;5110019;28;20227;-83
2024/01/10 10:54:54;;;;;;;3.73;2.40;;;;;;;;;;5114984;28;20195;-83
2024/01/10 10:57:22;;;;;;;3.50;3.00;;;;;;;;;;5115290;28;20203;-82
2024/01/10 10:59:52;;;;;;;3.03;2.63;;;;;;;;;;5115216;28;20273;-82
2024/01/10 11:02:24;;;;;;;2.60;2.40;;;;;;;;;;5114797;28;20257;-82
2024/01/10 11:04:51;;;;;;;3.60;2.90;;;;;;;;;;5114637;28;20192;-82
2024/01/10 11:07:18;;;;;;;6.67;2.53;;;;;;;;;;5114259;28;20199;-82
2024/01/10 11:09:47;;;;;;;3.43;2.27;;;;;;;;;;5114370;28;20202;-82
2024/01/10 11:12:27;;;;;;;3.13;2.63;;;;;;;;;;5112677;28;20208;-82
2024/01/10 11:15:13;;;;;;;3.23;2.80;;;;;;;;;;5114663;28;20550;-82
2024/01/10 11:17:52;;;;;;;3.13;2.50;;;;;;;;;;5114572;28;20203;-82
2024/01/10 11:20:33;;;;;;;3.07;2.33;;;;;;;;;;5114572;28;20662;-83
2024/01/10 11:23:27;;;;;;;2.63;2.43;;;;;;;;;;5114527;28;20210;-83
2024/01/10 11:25:53;;;;;;;3.20;2.30;;;;;;;;;;5114591;28;20573;-83
2024/01/10 11:28:21;;;;;;;4.40;2.50;;;;;;;;;;5114413;28;20203;-83
2024/01/10 11:30:51;;;;;;;3.83;2.83;;;;;;;;;;5100787;28;20206;-84
2024/01/10 11:33:23;;;;;;;4.53;2.87;;;;;;;;;;5114434;28;20227;-84
2024/01/10 11:36:15;;;;;;;2.73;2.33;;;;;;;;;;5114188;28;20636;-83
2024/01/10 11:38:43;;;;;;;2.70;2.50;;;;;;;;;;5114703;28;20200;-83
2024/01/10 11:41:12;;;;;;;5.33;3.40;;;;;;;;;;5113733;28;20221;-83
2024/01/10 11:43:39;;;;;;;6.37;3.23;;;;;;;;;;5113737;28;20661;-84
2024/01/10 11:46:08;;;;;;;5.80;3.90;;;;;;;;;;5113970;28;20192;-84
2024/01/10 11:48:35;;;;;;;3.70;3.30;;;;;;;;;;5114205;28;20203;-84
2024/01/10 11:51:02;;;;;;;5.67;4.93;;;;;;;;;;5114170;28;20187;-85
2024/01/10 11:53:42;;;;;;;4.40;3.23;;;;;;;;;;5113676;28;20203;-84
2024/01/10 11:56:15;;;;;;;2.63;2.43;;;;;;;;;;5090019;28;20227;-85
2024/01/10 11:59:02;;;;;;;3.00;2.67;;;;;;;;;;5114007;28;20275;-85
2024/01/10 12:01:31;;;;;;;2.03;1.90;;;;;;;;;;5114067;28;20215;-84
2024/01/10 12:03:59;;;;;;;3.40;2.47;;;;;;;;;;5113389;28;20192;-84
2024/01/10 12:06:27;;;;;;;2.80;1.97;;;;;;;;;;5113697;28;20586;-84
2024/01/10 12:08:53;;;;;;;5.57;2.30;;;;;;;;;;5113766;28;20573;-84
2024/01/10 12:11:21;;;;;;;1.40;1.30;;;;;;;;;;5113824;28;20203;-84
2024/01/10 12:13:48;;;;;;;2.30;1.83;;;;;;;;;;5113373;28;20207;-84
2024/01/10 12:16:14;;;;;;;4.73;2.47;;;;;;;;;;5113522;28;20198;-84
2024/01/10 12:18:43;;;;;;;4.10;2.40;;;;;;;;;;5114025;28;20218;-84
2024/01/10 12:21:12;;;;;;;3.40;2.70;;;;;;;;;;5113168;28;20634;-84
2024/01/10 12:23:39;;;;;;;4.90;2.67;;;;;;;;;;5105199;28;20283;-85
2024/01/10 12:26:08;;;;;;;3.93;2.70;;;;;;;;;;5108237;28;20202;-85
2024/01/10 12:28:35;;;;;;;3.50;2.77;;;;;;;;;;5113212;28;20623;-84
2024/01/10 12:31:02;;;;;;;3.47;2.70;;;;;;;;;;5113228;28;20249;-84
2024/01/10 12:33:29;;;;;;;2.60;2.30;;;;;;;;;;5112947;28;20262;-85
2024/01/10 12:36:09;;;;;;;3.80;2.37;;;;;;;;;;5112917;28;20202;-85
2024/01/10 12:38:36;;;;;;;3.57;2.37;;;;;;;;;;5113602;28;20288;-84
2024/01/10 12:41:04;;;;;;;3.97;2.70;;;;;;;;;;5112620;28;20220;-85
2024/01/10 12:43:31;;;;;;;3.87;2.20;;;;;;;;;;5112904;28;20199;-85
2024/01/10 12:46:07;;;;;;;3.17;2.53;;;;;;;;;;5113020;28;20204;-84
2024/01/10 12:48:38;;;;;;;4.23;2.53;;;;;;;;;;5113154;28;20195;-84
2024/01/10 12:51:06;;;;;;;4.10;3.60;;;;;;;;;;5112682;28;20244;-84
2024/01/10 12:53:35;;;;;;;4.27;2.67;;;;;;;;;;5112108;28;20204;-84
2024/01/10 12:56:03;;;;;;;2.60;2.23;;;;;;;;;;5111992;28;20199;-84
2024/01/10 12:58:30;;;;;;;3.27;2.97;;;;;;;;;;5112468;28;20203;-84
2024/01/10 13:00:57;;;;;;;4.13;3.60;;;;;;;;;;5112857;28;20195;-84
2024/01/10 13:03:24;;;;;;;4.00;3.60;;;;;;;;;;5112549;28;20203;-84
2024/01/10 13:05:51;;;;;;;3.43;2.63;;;;;;;;;;5111668;28;20187;-84
2024/01/10 13:08:20;;;;;;;4.60;2.57;;;;;;;;;;5112112;28;20574;-84
2024/01/10 13:10:47;;;;;;;4.70;3.00;;;;;;;;;;5112510;28;20198;-84
2024/01/10 13:13:14;;;;;;;3.57;2.87;;;;;;;;;;5112946;28;20654;-85
2024/01/10 13:15:42;;;;;;;3.73;2.83;;;;;;;;;;5112487;28;20256;-85
2024/01/10 13:18:11;;;;;;;3.70;3.30;;;;;;;;;;5112220;28;20191;-85
2024/01/10 13:20:38;;;;;;;5.40;4.47;;;;;;;;;;5112488;28;20199;-84
2024/01/10 13:23:05;;;;;;;11.87;8.40;;;;;;;;;;5112180;28;20219;-85
2024/01/10 13:25:33;;;;;;;5.00;3.80;;;;;;;;;;5112198;28;20195;-85
2024/01/10 13:28:00;;;;;;;10.40;6.80;;;;;;;;;;5112246;28;20195;-85
2024/01/10 13:30:27;;;;;;;5.33;4.17;;;;;;;;;;5112393;28;20327;-85
2024/01/10 13:32:54;;;;;;;7.00;3.13;;;;;;;;;;5112019;28;20222;-85
2024/01/10 13:35:22;;;;;;;3.03;2.83;;;;;;;;;;5112462;28;20199;-85
2024/01/10 13:37:49;;;;;;;7.47;4.40;;;;;;;;;;5112317;28;20196;-85
2024/01/10 13:40:15;;;;;;;4.47;3.67;;;;;;;;;;5112314;28;20273;-85
2024/01/10 13:42:43;;;;;;;6.67;3.90;;;;;;;;;;5111588;28;20689;-85
2024/01/10 13:45:11;;;;;;;3.37;2.43;;;;;;;;;;5111789;28;20207;-85
2024/01/10 13:47:39;;;;;;;4.30;2.70;;;;;;;;;;5111972;28;20199;-85
2024/01/10 13:50:07;;;;;;;5.10;3.80;;;;;;;;;;5100170;28;20283;-85
2024/01/10 13:52:36;;;;;;;2.70;2.30;;;;;;;;;;5105336;28;20199;-84
2024/01/10 13:55:04;;;;;;;3.47;2.40;;;;;;;;;;5102468;28;20249;-84
2024/01/10 13:57:32;;;;;;;4.50;3.67;;;;;;;;;;5111693;28;20301;-84
2024/01/10 14:00:00;;;;;;;3.20;2.27;;;;;;;;;;5112056;28;20282;-84
2024/01/10 14:02:27;;;;;;;2.30;2.10;;;;;;;;;;5111114;28;20230;-83
2024/01/10 14:04:57;;;;;;;3.20;2.20;;;;;;;;;;5111826;28;20585;-84
2024/01/10 14:07:24;;;;;;;5.83;3.27;;;;;;;;;;5111822;28;20567;-84
2024/01/10 14:09:51;;;;;;;2.87;2.23;;;;;;;;;;5111139;28;20195;-83
2024/01/10 14:12:17;;;;;;;4.63;3.23;;;;;;;;;;5111980;28;20211;-84
2024/01/10 14:14:45;;;;;;;9.10;5.73;;;;;;;;;;5109371;28;20657;-84
2024/01/10 14:17:13;;;;;;;7.50;5.27;;;;;;;;;;5110586;28;20195;-84
2024/01/10 14:19:40;;;;;;;4.47;3.53;;;;;;;;;;5113858;28;20650;-84
2024/01/10 14:22:06;;;;;;;3.27;2.60;;;;;;;;;;5115670;28;20222;-83
2024/01/10 14:24:38;;;;;;;5.97;3.83;;;;;;;;;;5115723;28;20581;-83
2024/01/10 14:27:05;;;;;;;6.27;4.60;;;;;;;;;;5113032;28;20191;-83
2024/01/10 14:29:33;;;;;;;5.67;4.37;;;;;;;;;;5115921;28;20191;-83
2024/01/10 14:32:00;;;;;;;3.63;2.97;;;;;;;;;;5115416;28;20730;-83
2024/01/10 14:34:28;;;;;;;4.13;3.03;;;;;;;;;;5115410;28;20735;-83
2024/01/10 14:36:55;;;;;;;3.47;2.87;;;;;;;;;;5115402;28;20195;-83
2024/01/10 14:39:22;;;;;;;2.57;2.30;;;;;;;;;;5116018;28;20286;-84
2024/01/10 14:41:49;;;;;;;3.40;2.17;;;;;;;;;;5115115;28;20234;-83
2024/01/10 14:44:16;;;;;;;4.17;2.83;;;;;;;;;;5115128;28;20210;-83